< < Back
Terminal Aerodrome Forecast


Current Version              Previous Versions:   1  2  3  4  5  6  7  8  9  

Terminal Aerodrome Forecast

927
FTUS42 KJAX 300552
TAFSSI
TAF
KSSI 300552Z 3006/3106 25007KT P6SM FEW250
     FM301300 28008KT P6SM FEW040 FEW250
     FM301800 15010KT P6SM SCT050 SCT250
     FM310200 18009KT P6SM FEW050 SCT150 BKN250=



Latest METAR

330
SAUS70 KWBC 302300
MTRSSI
METAR KSSI 302253Z AUTO 16011G19KT 10SM CLR 31/24 A2998 RMK AO2 SLP152
T03110244


USA.gov is the U.S. government's official web portal to all federal, state and local government web resources and services.